• pl
  • eng

Awiacja
Kliknij na pogrubioną czerwoną nazwę, aby odkodować depeszę. 08:01 16.12.2017
  • WIND
  • SIGNIFICANT EURO
  • SIGNIFICANT
  • SIGMET
  • AIRMET
  • TAF FC
  • TAF FT
  • METAR GG30
  • METAR GG00


METAR EPBY 160700Z 26007KT 1800 BR OVC002 M00/M01 Q1001 R26/29//95 =

METAR EPGD 160700Z 24006KT 8000 SCT009 BKN020 00/M01 Q0999 =

METAR EPKK 160700Z 23002KT 8000 SCT040 M01/M03 Q1002 =

METAR EPKT 160700Z VRB02KT 4800 BR NSC M04/M05 Q1001 =

METAR EPLB 160700Z 33003KT 7000 SCT008 OVC015 02/01 Q1000 =

METAR EPLL 160700Z 29006KT 9999 OVC011 00/M02 Q1001 =

METAR EPMO 160700Z 29003KT 1500 BR OVC002 01/01 Q1001 =

METAR EPPO 160700Z 24003KT 4700 BR SCT009 BKN034 00/M01 Q1002
R10/29//95 =

METAR EPRA 160700Z 33003KT 3500 BR BKN006 OVC010 01/01 Q1001=

METAR EPRZ 160700Z 26005KT 2500 -SN BR FEW003 OVC017 00/M00 Q1000
RESN =

METAR EPSC 160700Z 19003KT 150V230 5000 BR BKN009 OVC010 00/M00 Q1001
R13/72//95 =

METAR EPSY 160700Z VRB02KT 2400 BR OVC002 M01/M01 Q1000=

METAR EPWA 160700Z 32005KT 4500 BR OVC004 01/01 Q1001 TEMPO 3000 BR=

METAR EPWR 160700Z 30008KT 9000 BKN041 M04/M04 Q1003 =

METAR EPZG 160700Z 22003KT 1500 BR OVC036 00/00 Q1003 =
Awiacja.imgw.pl jest pogodowym serwisem informacyjnym
Instytutu Meteorologii i Gospodarki Wodnej Państwowego Instytutu Badawczego.
Copyright IMGW PIB 2009-2011© Wszelkie prawa zastrzeżone.